Revere, North Dakota
Current Conditions -  °F | °C
As of 11:55 AM on Friday 21 Nov 2014 (Local Time) from KBAC Reporting Station
Light Snow Light Snow  
Wind Chill: 13°   Ceiling: Unl
Heat Index: 27°   Visibility: 10mi
Dew Point: 23°   Wind: 21mph
Humidity: 86%   Direction: 200°SSW
Pressure: 29.75"   Gusts: 25mph
Location:  47.2843°N, 98.1073°W
Report Text: KBAC 211755Z AUTO 20018G22KT 10SM -SN CLR M03/M05 A2975 RMK AO2 P0001
Loading
Personal Weather Stations






























Interactive Weather Map New forecast layout! Learn more

10-Day Weather Forecast

Advertisements
Track Severe Weather on mobile